createdAt,value
2023-03-07T00:02:04.180Z,5.32
2023-03-07T00:05:07.696Z,5.41
2023-03-07T00:08:11.540Z,5.38
2023-03-07T00:11:14.665Z,5.33
2023-03-07T00:14:17.791Z,5.31
2023-03-07T00:17:20.565Z,5.29
2023-03-07T00:20:23.378Z,5.25
2023-03-07T00:23:26.648Z,5.33
2023-03-07T00:26:29.410Z,5.33
2023-03-07T00:29:32.116Z,5.36
2023-03-07T00:32:34.929Z,5.41
2023-03-07T00:35:37.652Z,5.40
2023-03-07T00:38:42.318Z,5.36
2023-03-07T00:41:45.147Z,5.41
2023-03-07T00:44:47.936Z,5.45
2023-03-07T00:47:50.708Z,5.49
2023-03-07T00:50:53.740Z,5.50
2023-03-07T00:53:57.086Z,5.50
2023-03-07T00:56:59.957Z,5.52
2023-03-07T01:00:02.788Z,5.55
2023-03-07T01:03:07.289Z,5.48
2023-03-07T01:06:14.454Z,5.47
2023-03-07T01:09:17.612Z,5.54
2023-03-07T01:12:20.687Z,5.52
2023-03-07T01:15:23.638Z,5.57
2023-03-07T01:18:26.449Z,5.65
2023-03-07T01:21:38.474Z,5.61
2023-03-07T01:24:41.242Z,5.55
2023-03-07T01:27:44.112Z,5.55
2023-03-07T01:30:57.165Z,5.48
2023-03-07T01:34:02.410Z,5.45
2023-03-07T01:37:07.464Z,5.38
2023-03-07T01:40:11.045Z,5.36
2023-03-07T01:43:31.711Z,5.38
2023-03-07T01:46:50.589Z,5.44
2023-03-07T01:49:54.900Z,5.34
2023-03-07T01:53:00.643Z,5.39
2023-03-07T01:56:05.792Z,5.44
2023-03-07T01:59:08.988Z,5.37
2023-03-07T02:02:17.322Z,5.43
2023-03-07T02:05:25.752Z,5.36
2023-03-07T02:08:32.058Z,5.35
2023-03-07T02:11:34.999Z,5.47
2023-03-07T02:14:38.057Z,5.40
2023-03-07T02:17:42.269Z,5.37
2023-03-07T02:21:23.624Z,5.40
2023-03-07T02:24:38.936Z,5.48
2023-03-07T02:27:43.091Z,5.41
2023-03-07T02:31:12.932Z,5.36
2023-03-07T02:34:22.630Z,5.35
2023-03-07T02:37:33.363Z,5.33
2023-03-07T02:40:36.945Z,5.33
2023-03-07T02:43:39.770Z,5.36
2023-03-07T02:46:43.526Z,5.18
2023-03-07T02:49:46.440Z,5.13
2023-03-07T02:52:50.121Z,5.10
2023-03-07T02:55:53.073Z,5.10
2023-03-07T02:58:56.032Z,5.14
2023-03-07T03:01:59.333Z,5.15
2023-03-07T03:05:02.408Z,4.95
2023-03-07T03:08:05.585Z,4.92
2023-03-07T03:11:08.615Z,4.91
2023-03-07T03:14:12.129Z,4.95
2023-03-07T03:17:14.968Z,4.85
2023-03-07T03:20:19.388Z,4.79
2023-03-07T03:23:22.138Z,4.84
2023-03-07T03:26:25.035Z,4.87
2023-03-07T03:29:28.371Z,4.88
2023-03-07T03:32:37.910Z,4.83
2023-03-07T03:35:41.152Z,4.79
2023-03-07T03:38:44.979Z,4.79
2023-03-07T03:41:47.837Z,4.79
2023-03-07T03:44:52.314Z,4.74
2023-03-07T03:47:55.151Z,4.69
2023-03-07T03:51:07.210Z,4.71
2023-03-07T03:54:10.316Z,4.77
2023-03-07T03:57:16.039Z,4.71
2023-03-07T04:00:21.106Z,4.51
2023-03-07T04:03:24.517Z,4.46
2023-03-07T04:06:30.449Z,4.44
2023-03-07T04:09:33.983Z,4.39
2023-03-07T04:12:37.003Z,4.37
2023-03-07T04:15:41.010Z,4.33
2023-03-07T04:18:44.107Z,4.31
2023-03-07T04:21:46.949Z,4.31
2023-03-07T04:24:52.104Z,4.23
2023-03-07T04:27:55.097Z,4.20
2023-03-07T04:30:58.071Z,4.21
2023-03-07T04:34:01.002Z,4.20
2023-03-07T04:37:04.644Z,4.15
2023-03-07T04:40:07.807Z,4.16
2023-03-07T04:43:10.790Z,4.19
2023-03-07T04:46:17.019Z,4.18
2023-03-07T04:49:20.040Z,4.19
2023-03-07T04:52:22.863Z,4.19
2023-03-07T04:55:25.930Z,4.21
2023-03-07T04:58:29.900Z,4.19
2023-03-07T05:01:32.828Z,4.15
2023-03-07T05:04:36.637Z,4.14
2023-03-07T05:07:40.267Z,4.15
2023-03-07T05:10:43.130Z,4.17
2023-03-07T05:13:46.259Z,4.19
2023-03-07T05:16:52.489Z,4.31
2023-03-07T05:19:55.388Z,4.33
2023-03-07T05:22:58.640Z,4.30
2023-03-07T05:26:01.551Z,4.36
2023-03-07T05:29:04.899Z,4.37
2023-03-07T05:32:08.081Z,4.36
2023-03-07T05:35:12.623Z,4.40
2023-03-07T05:38:17.100Z,4.42
2023-03-07T05:41:19.943Z,4.52
2023-03-07T05:44:22.833Z,4.64
2023-03-07T05:47:25.709Z,4.70
2023-03-07T05:50:28.719Z,4.80
2023-03-07T05:53:31.897Z,4.80
2023-03-07T05:56:35.081Z,4.80
2023-03-07T05:59:38.399Z,4.78
2023-03-07T06:02:42.620Z,4.85
2023-03-07T06:05:50.580Z,4.69
2023-03-07T06:08:53.545Z,4.64
2023-03-07T06:11:56.384Z,4.60
2023-03-07T06:14:59.348Z,4.76
2023-03-07T06:18:02.330Z,4.99
2023-03-07T06:21:07.049Z,4.99
2023-03-07T06:24:14.555Z,4.92
2023-03-07T06:27:17.633Z,4.96
2023-03-07T06:30:20.538Z,4.87
2023-03-07T06:33:23.291Z,4.99
2023-03-07T06:36:26.198Z,5.05
2023-03-07T06:39:32.763Z,5.04
2023-03-07T06:42:38.074Z,5.19
2023-03-07T06:45:41.789Z,4.94
2023-03-07T06:48:46.556Z,4.91
2023-03-07T06:51:53.556Z,4.96
2023-03-07T06:54:57.148Z,4.97
2023-03-07T06:58:00.225Z,5.14
2023-03-07T07:01:03.159Z,5.25
2023-03-07T07:04:11.707Z,5.21
2023-03-07T07:07:17.436Z,5.11
2023-03-07T07:10:20.362Z,5.08
2023-03-07T07:13:23.461Z,5.19
2023-03-07T07:16:26.776Z,5.26
2023-03-07T07:19:31.127Z,5.32
2023-03-07T07:22:35.057Z,5.31
2023-03-07T07:25:41.011Z,5.34
2023-03-07T07:28:44.090Z,5.34
2023-03-07T07:31:47.549Z,5.23
2023-03-07T07:34:51.511Z,5.18
2023-03-07T07:37:55.176Z,5.32
2023-03-07T07:40:58.187Z,5.45
2023-03-07T07:44:02.938Z,5.50
2023-03-07T07:47:13.787Z,5.42
2023-03-07T07:50:18.478Z,5.52
2023-03-07T07:53:21.570Z,5.87
2023-03-07T07:56:25.722Z,6.14
2023-03-07T07:59:29.181Z,6.21
2023-03-07T08:02:37.785Z,6.25
2023-03-07T08:05:48.798Z,6.17
2023-03-07T08:08:56.451Z,6.10
2023-03-07T08:12:00.646Z,6.35
2023-03-07T08:15:04.203Z,6.15
2023-03-07T08:18:11.558Z,6.01
2023-03-07T08:24:53.953Z,6.03
2023-03-07T08:28:00.215Z,6.11
2023-03-07T08:31:08.843Z,6.11
2023-03-07T08:34:13.593Z,5.86
2023-03-07T08:37:18.926Z,5.57
2023-03-07T08:40:22.870Z,5.75
2023-03-07T08:43:42.923Z,5.79
2023-03-07T08:46:46.059Z,5.91
2023-03-07T08:49:49.284Z,6.01
2023-03-07T08:52:52.564Z,5.97
2023-03-07T08:55:58.256Z,6.07
2023-03-07T08:59:04.511Z,6.06
2023-03-07T09:02:07.662Z,6.04
2023-03-07T09:05:13.589Z,6.06
2023-03-07T09:08:21.164Z,6.24
2023-03-07T09:11:28.390Z,6.95
2023-03-07T09:14:35.843Z,6.68
2023-03-07T09:17:40.790Z,6.85
2023-03-07T09:20:43.930Z,6.62
2023-03-07T09:23:46.830Z,6.22
2023-03-07T09:26:49.780Z,6.53
2023-03-07T09:29:53.184Z,6.68
2023-03-07T09:33:08.148Z,6.70
2023-03-07T09:36:16.774Z,6.68
2023-03-07T09:39:36.365Z,6.33
2023-03-07T09:43:16.772Z,6.32
2023-03-07T09:46:57.213Z,6.81
2023-03-07T09:50:01.452Z,7.08
2023-03-07T09:53:04.764Z,7.06
2023-03-07T09:56:13.424Z,7.07
2023-03-07T09:59:43.594Z,7.29
2023-03-07T10:02:51.922Z,7.24
2023-03-07T10:06:00.406Z,7.49
2023-03-07T10:09:22.926Z,7.34
2023-03-07T10:12:44.290Z,7.21
2023-03-07T10:15:53.268Z,7.14
2023-03-07T10:19:05.711Z,6.61
2023-03-07T10:22:30.274Z,6.81
2023-03-07T10:25:46.727Z,6.87
2023-03-07T10:28:49.854Z,6.94
2023-03-07T10:31:56.773Z,7.01
2023-03-07T10:35:21.912Z,7.02
2023-03-07T10:38:33.544Z,7.08
2023-03-07T10:41:36.442Z,7.00
2023-03-07T10:44:40.562Z,7.07
2023-03-07T10:47:49.479Z,7.34
2023-03-07T10:51:07.537Z,8.33
2023-03-07T10:54:21.548Z,9.06
2023-03-07T10:57:28.149Z,8.85
2023-03-07T11:00:30.945Z,8.99
2023-03-07T11:03:51.851Z,9.28
2023-03-07T11:07:02.609Z,8.85
2023-03-07T11:10:25.977Z,8.35
2023-03-07T11:13:29.569Z,7.89
2023-03-07T11:16:32.613Z,8.04
2023-03-07T11:19:44.185Z,7.98
2023-03-07T11:22:47.121Z,7.72
2023-03-07T11:25:51.931Z,7.76
2023-03-07T11:29:13.330Z,7.97
2023-03-07T11:32:22.146Z,7.94
2023-03-07T11:35:40.470Z,8.38
2023-03-07T11:38:49.324Z,8.33
2023-03-07T11:42:11.249Z,8.30
2023-03-07T11:45:34.558Z,8.15
2023-03-07T11:49:06.059Z,7.96
2023-03-07T11:52:31.428Z,7.97
2023-03-07T11:55:45.788Z,7.88
2023-03-07T11:59:29.743Z,8.01
2023-03-07T12:02:53.076Z,8.06
2023-03-07T12:06:20.333Z,8.24
2023-03-07T12:09:41.780Z,7.90
2023-03-07T12:13:16.846Z,7.97
2023-03-07T12:16:51.516Z,7.99
2023-03-07T12:20:07.948Z,8.46
2023-03-07T12:23:21.268Z,8.61
2023-03-07T12:26:36.613Z,8.81
2023-03-07T12:29:53.576Z,8.98
2023-03-07T12:32:58.314Z,8.80
2023-03-07T12:36:06.971Z,8.95
2023-03-07T12:39:30.842Z,8.90
2023-03-07T12:42:37.998Z,9.07
2023-03-07T12:45:56.321Z,8.79
2023-03-07T12:49:02.434Z,9.13
2023-03-07T12:52:12.072Z,9.25
2023-03-07T12:55:24.634Z,9.53
2023-03-07T12:58:52.414Z,8.78
2023-03-07T13:02:01.911Z,8.92
2023-03-07T13:05:04.987Z,9.02
2023-03-07T13:08:29.193Z,9.19
2023-03-07T13:11:35.051Z,10.48
2023-03-07T13:15:08.258Z,9.80
2023-03-07T13:18:27.853Z,9.59
2023-03-07T13:21:33.020Z,9.64
2023-03-07T13:24:41.404Z,9.36
2023-03-07T13:27:59.779Z,9.31
2023-03-07T13:31:20.576Z,9.42
2023-03-07T13:34:47.759Z,9.50
2023-03-07T13:37:50.397Z,9.50
2023-03-07T13:40:58.697Z,10.46
2023-03-07T13:44:02.781Z,10.47
2023-03-07T13:47:40.842Z,10.52
2023-03-07T13:50:47.244Z,10.02
2023-03-07T13:53:53.524Z,9.76
2023-03-07T13:56:56.443Z,9.12
2023-03-07T14:00:01.213Z,9.01
2023-03-07T14:03:38.045Z,8.99
2023-03-07T14:06:44.560Z,9.09
2023-03-07T14:10:22.662Z,8.86
2023-03-07T14:13:41.790Z,8.78
2023-03-07T14:16:47.294Z,8.96
2023-03-07T14:19:50.726Z,8.99
2023-03-07T14:23:51.420Z,8.93
2023-03-07T14:26:59.646Z,9.05
2023-03-07T14:30:02.432Z,9.49
2023-03-07T14:33:05.728Z,9.93
2023-03-07T14:36:29.657Z,11.01
2023-03-07T14:40:01.869Z,10.36
2023-03-07T14:43:04.586Z,10.14
2023-03-07T14:46:22.173Z,9.70
2023-03-07T14:49:46.138Z,9.68
2023-03-07T14:52:51.251Z,9.41
2023-03-07T14:55:55.815Z,9.45
2023-03-07T14:59:01.144Z,9.28
2023-03-07T15:02:15.432Z,8.99
2023-03-07T15:05:31.488Z,8.82
2023-03-07T15:08:38.436Z,8.90
2023-03-07T15:11:45.153Z,8.83
2023-03-07T15:14:52.180Z,8.68
2023-03-07T15:17:58.111Z,8.52
2023-03-07T15:21:04.311Z,8.49
2023-03-07T15:24:19.711Z,8.55
2023-03-07T15:27:26.412Z,8.61
2023-03-07T15:30:32.768Z,8.65
2023-03-07T15:33:36.081Z,8.82
2023-03-07T15:36:43.216Z,8.75
2023-03-07T15:39:56.339Z,8.76
2023-03-07T15:43:15.741Z,8.76
2023-03-07T15:46:19.770Z,8.65
2023-03-07T15:49:41.287Z,8.43
2023-03-07T15:52:52.294Z,8.29
2023-03-07T15:56:05.455Z,8.38
2023-03-07T15:59:20.768Z,8.29
2023-03-07T16:02:32.956Z,8.14
2023-03-07T16:05:39.379Z,8.07
2023-03-07T16:08:42.413Z,8.02
2023-03-07T16:11:46.421Z,8.02
2023-03-07T16:14:51.839Z,7.98
2023-03-07T16:17:56.642Z,7.94
2023-03-07T16:21:00.025Z,7.86
2023-03-07T16:24:02.809Z,7.82
2023-03-07T16:27:05.570Z,7.79
2023-03-07T16:30:21.686Z,7.78
2023-03-07T16:33:24.547Z,7.75
2023-03-07T16:36:27.584Z,7.69
2023-03-07T16:39:30.388Z,7.61
2023-03-07T16:42:34.168Z,7.61
2023-03-07T16:45:37.008Z,7.62
2023-03-07T16:48:40.060Z,7.52
2023-03-07T16:51:42.997Z,7.49
2023-03-07T16:54:45.925Z,7.48
2023-03-07T16:57:54.509Z,7.42
2023-03-07T17:00:59.193Z,7.29
2023-03-07T17:04:02.114Z,7.14
2023-03-07T17:07:14.628Z,7.05
2023-03-07T17:10:17.887Z,6.97
2023-03-07T17:13:21.390Z,6.95
2023-03-07T17:16:24.954Z,6.89
2023-03-07T17:19:30.549Z,6.88
2023-03-07T17:22:33.704Z,6.86
2023-03-07T17:25:36.774Z,6.80
2023-03-07T17:28:39.893Z,6.81
2023-03-07T17:31:44.177Z,6.77
2023-03-07T17:34:47.626Z,6.73
2023-03-07T17:37:53.107Z,6.67
2023-03-07T17:40:57.058Z,6.65
2023-03-07T17:44:00.117Z,6.60
2023-03-07T17:47:03.924Z,6.60
2023-03-07T17:50:08.712Z,6.53
2023-03-07T17:53:12.527Z,6.50
2023-03-07T17:56:15.528Z,6.51
2023-03-07T17:59:18.550Z,6.52
2023-03-07T18:02:21.739Z,6.53
2023-03-07T18:05:26.159Z,6.54
2023-03-07T18:08:29.068Z,6.56
2023-03-07T18:11:32.296Z,6.58
2023-03-07T18:14:35.094Z,6.62
2023-03-07T18:17:47.233Z,6.65
2023-03-07T18:21:02.200Z,6.63
2023-03-07T18:24:19.776Z,6.68
2023-03-07T18:27:24.816Z,6.67
2023-03-07T18:30:28.355Z,6.68
2023-03-07T18:33:32.125Z,6.67
2023-03-07T18:36:35.234Z,6.72
2023-03-07T18:39:39.059Z,6.74
2023-03-07T18:42:42.775Z,6.81
2023-03-07T18:45:47.827Z,6.85
2023-03-07T18:48:51.282Z,6.82
2023-03-07T18:51:54.376Z,6.86
2023-03-07T18:54:57.388Z,6.85
2023-03-07T18:58:00.442Z,6.96
2023-03-07T19:01:24.869Z,6.91
2023-03-07T19:04:27.941Z,6.82
2023-03-07T19:07:31.599Z,6.83
2023-03-07T19:10:36.224Z,6.64
2023-03-07T19:13:40.113Z,6.51
2023-03-07T19:16:43.536Z,6.39
2023-03-07T19:19:47.414Z,6.47
2023-03-07T19:22:51.296Z,6.48
2023-03-07T19:25:54.345Z,6.45
2023-03-07T19:28:58.084Z,6.47
2023-03-07T19:32:01.115Z,6.50
2023-03-07T19:35:04.890Z,6.45
2023-03-07T19:38:07.984Z,6.33
2023-03-07T19:41:15.303Z,6.32
2023-03-07T19:44:19.093Z,6.22
2023-03-07T19:47:23.281Z,6.19
2023-03-07T19:50:26.445Z,6.07
2023-03-07T19:53:29.833Z,6.13
2023-03-07T19:56:33.052Z,6.01
2023-03-07T19:59:36.112Z,5.99
2023-03-07T20:02:39.626Z,5.90
2023-03-07T20:05:44.093Z,5.86
2023-03-07T20:08:49.187Z,5.80
2023-03-07T20:11:52.327Z,5.77
2023-03-07T20:14:55.726Z,5.66
2023-03-07T20:18:01.878Z,5.67
2023-03-07T20:21:11.948Z,5.69
2023-03-07T20:24:14.928Z,5.68
2023-03-07T20:27:21.915Z,5.65
2023-03-07T20:30:25.109Z,5.66
2023-03-07T20:33:28.656Z,5.69
2023-03-07T20:36:34.577Z,5.66
2023-03-07T20:39:39.281Z,5.67
2023-03-07T20:42:42.745Z,5.68
2023-03-07T20:45:45.814Z,5.60
2023-03-07T20:48:49.650Z,5.58
2023-03-07T20:51:53.030Z,5.60
2023-03-07T20:54:56.212Z,5.47
2023-03-07T20:57:59.438Z,5.40
2023-03-07T21:01:02.350Z,5.26
2023-03-07T21:04:11.504Z,5.15
2023-03-07T21:07:14.503Z,5.12
2023-03-07T21:10:17.649Z,5.11
2023-03-07T21:13:22.845Z,4.98
2023-03-07T21:16:27.363Z,4.90
2023-03-07T21:19:30.627Z,4.82
2023-03-07T21:22:33.661Z,4.71
2023-03-07T21:25:36.342Z,4.60
2023-03-07T21:28:40.180Z,4.57
2023-03-07T21:31:43.740Z,4.46
2023-03-07T21:34:46.892Z,4.44
2023-03-07T21:37:50.064Z,4.33
2023-03-07T21:40:56.639Z,4.32
2023-03-07T21:44:00.491Z,4.25
2023-03-07T21:47:03.360Z,4.25
2023-03-07T21:50:06.829Z,4.31
2023-03-07T21:53:09.982Z,4.32
2023-03-07T21:56:17.340Z,4.38
2023-03-07T21:59:20.441Z,4.46
2023-03-07T22:02:23.661Z,4.49
2023-03-07T22:05:26.453Z,4.52
2023-03-07T22:08:29.422Z,4.57
2023-03-07T22:11:32.148Z,4.64
2023-03-07T22:14:34.870Z,4.68
2023-03-07T22:17:37.604Z,4.69
2023-03-07T22:20:40.362Z,4.76
2023-03-07T22:23:43.398Z,4.71
2023-03-07T22:26:46.118Z,4.75
2023-03-07T22:29:48.974Z,4.79
2023-03-07T22:32:51.621Z,4.80
2023-03-07T22:35:59.629Z,4.75
2023-03-07T22:39:02.649Z,4.68
2023-03-07T22:42:05.622Z,4.60
2023-03-07T22:45:08.961Z,4.46
2023-03-07T22:48:11.929Z,4.43
2023-03-07T22:51:18.029Z,4.32
2023-03-07T22:54:20.801Z,4.08
2023-03-07T22:57:23.532Z,4.07
2023-03-07T23:00:26.619Z,3.94
2023-03-07T23:03:30.120Z,3.77
2023-03-07T23:06:33.817Z,3.67
2023-03-07T23:09:36.501Z,3.60
2023-03-07T23:12:39.360Z,3.48
2023-03-07T23:15:42.212Z,3.46
2023-03-07T23:18:46.682Z,3.56
2023-03-07T23:21:49.879Z,3.49
2023-03-07T23:24:52.858Z,3.46
2023-03-07T23:27:55.538Z,3.39
2023-03-07T23:30:58.651Z,3.25
2023-03-07T23:34:05.006Z,3.10
2023-03-07T23:37:07.807Z,3.00
2023-03-07T23:40:12.338Z,2.96
2023-03-07T23:43:15.068Z,2.97
2023-03-07T23:46:17.986Z,2.99
2023-03-07T23:49:21.381Z,2.93
2023-03-07T23:52:24.182Z,3.08
2023-03-07T23:55:26.905Z,3.15
2023-03-07T23:58:29.573Z,3.26
